Time;durP1;ratioP1;P1;durP2;ratioP2;P2;SDS_P1;SDS_P2;PMS_P1;PMS_P2;Temp;Humidity;BMP_temperature;BMP_pressure;BME280_temperature;BME280_humidity;BME280_pressure;Samples;Min_cycle;Max_cycle;Signal;HPM_P1;HPM_P2
2023/05/20 00:00:11;;;;;;;5.43;4.67;;;;;;;;;;5031735;28;20876;-63
2023/05/20 00:02:37;;;;;;;5.50;5.00;;;;;;;;;;5032395;28;20440;-62
2023/05/20 00:05:03;;;;;;;5.13;4.70;;;;;;;;;;5035270;28;20469;-62
2023/05/20 00:07:29;;;;;;;7.60;5.10;;;;;;;;;;5035346;28;20519;-62
2023/05/20 00:09:55;;;;;;;6.87;5.33;;;;;;;;;;5035322;28;20405;-62
2023/05/20 00:12:21;;;;;;;6.73;5.90;;;;;;;;;;5035276;28;20938;-62
2023/05/20 00:14:47;;;;;;;6.20;5.40;;;;;;;;;;5034961;28;20443;-62
2023/05/20 00:17:16;;;;;;;8.07;5.10;;;;;;;;;;5035119;28;20430;-62
2023/05/20 00:19:42;;;;;;;7.50;4.97;;;;;;;;;;5035076;28;20873;-62
2023/05/20 00:22:08;;;;;;;17.80;5.87;;;;;;;;;;5034934;28;20462;-62
2023/05/20 00:24:34;;;;;;;8.33;5.80;;;;;;;;;;5034740;28;20465;-62
2023/05/20 00:27:01;;;;;;;7.10;5.23;;;;;;;;;;5035031;28;20408;-63
2023/05/20 00:29:27;;;;;;;11.50;6.10;;;;;;;;;;5034839;28;20432;-63
2023/05/20 00:31:53;;;;;;;5.47;4.93;;;;;;;;;;5034846;28;20494;-63
2023/05/20 00:34:20;;;;;;;5.43;4.93;;;;;;;;;;5034739;28;20447;-63
2023/05/20 00:36:46;;;;;;;8.83;5.60;;;;;;;;;;5034880;28;20860;-63
2023/05/20 00:39:12;;;;;;;5.57;5.07;;;;;;;;;;5030050;28;20591;-62
2023/05/20 00:41:38;;;;;;;7.70;5.60;;;;;;;;;;5016788;28;20461;-62
2023/05/20 00:44:04;;;;;;;6.10;5.43;;;;;;;;;;5034740;28;20939;-63
2023/05/20 00:46:30;;;;;;;5.40;4.87;;;;;;;;;;5034647;28;20472;-62
2023/05/20 00:48:56;;;;;;;6.13;5.67;;;;;;;;;;5027829;28;20428;-62
2023/05/20 00:51:22;;;;;;;5.37;4.87;;;;;;;;;;5014753;28;20497;-62
2023/05/20 00:53:49;;;;;;;8.70;5.43;;;;;;;;;;5014609;28;20755;-62
2023/05/20 00:56:15;;;;;;;5.67;5.17;;;;;;;;;;5014601;28;21106;-62
2023/05/20 00:58:41;;;;;;;12.87;5.50;;;;;;;;;;5014572;28;20915;-62
2023/05/20 01:01:07;;;;;;;7.30;4.83;;;;;;;;;;5014554;28;20416;-62
2023/05/20 01:03:33;;;;;;;5.70;5.30;;;;;;;;;;5014400;28;20437;-62
2023/05/20 01:06:00;;;;;;;5.30;4.90;;;;;;;;;;5014136;28;20468;-62
2023/05/20 01:08:27;;;;;;;7.93;5.57;;;;;;;;;;5014236;28;20493;-62
2023/05/20 01:10:57;;;;;;;5.70;5.13;;;;;;;;;;5014241;28;20503;-62
2023/05/20 01:13:27;;;;;;;6.27;5.43;;;;;;;;;;5013989;28;20409;-62
2023/05/20 01:15:55;;;;;;;5.40;5.00;;;;;;;;;;5013419;28;20980;-63
2023/05/20 01:18:24;;;;;;;5.67;5.13;;;;;;;;;;5014024;28;20529;-62
2023/05/20 01:20:50;;;;;;;11.60;5.50;;;;;;;;;;5014127;28;20511;-62
2023/05/20 01:23:16;;;;;;;5.93;5.50;;;;;;;;;;5014224;28;20421;-62
2023/05/20 01:25:42;;;;;;;6.00;5.37;;;;;;;;;;5028725;28;20839;-62
2023/05/20 01:28:09;;;;;;;6.07;5.47;;;;;;;;;;5033644;28;20413;-63
2023/05/20 01:30:37;;;;;;;7.87;5.43;;;;;;;;;;5033778;28;20454;-63
2023/05/20 01:33:08;;;;;;;9.03;5.53;;;;;;;;;;5048985;28;20499;-62
2023/05/20 01:35:35;;;;;;;7.20;5.33;;;;;;;;;;5033671;28;20420;-62
2023/05/20 01:38:02;;;;;;;6.83;5.37;;;;;;;;;;5033473;28;20417;-62
2023/05/20 01:40:29;;;;;;;6.00;5.17;;;;;;;;;;5033696;28;20440;-62
2023/05/20 01:42:55;;;;;;;9.43;6.13;;;;;;;;;;5033862;28;20421;-62
2023/05/20 01:45:23;;;;;;;6.20;5.50;;;;;;;;;;5033138;28;20452;-62
2023/05/20 01:47:49;;;;;;;5.70;5.30;;;;;;;;;;5033160;28;20766;-62
2023/05/20 01:50:15;;;;;;;5.93;5.47;;;;;;;;;;5033464;28;20440;-61
2023/05/20 01:52:41;;;;;;;10.77;6.20;;;;;;;;;;5033231;28;20420;-62
2023/05/20 01:55:07;;;;;;;6.30;5.77;;;;;;;;;;5033346;28;20408;-62
2023/05/20 01:57:33;;;;;;;8.60;5.40;;;;;;;;;;5033188;28;20485;-64
2023/05/20 01:59:59;;;;;;;5.53;5.17;;;;;;;;;;5033121;28;20954;-62
2023/05/20 02:02:25;;;;;;;8.00;6.00;;;;;;;;;;5033089;28;20416;-63
2023/05/20 02:04:51;;;;;;;6.07;5.30;;;;;;;;;;5033017;28;20562;-62
2023/05/20 02:07:18;;;;;;;6.53;5.97;;;;;;;;;;5033120;28;20547;-63
2023/05/20 02:09:44;;;;;;;6.20;5.07;;;;;;;;;;5033019;28;20412;-63
2023/05/20 02:12:15;;;;;;;8.83;6.40;;;;;;;;;;5032754;28;20419;-63
2023/05/20 02:14:43;;;;;;;7.17;5.50;;;;;;;;;;5033009;28;20900;-62
2023/05/20 02:17:09;;;;;;;5.77;5.37;;;;;;;;;;5032754;28;20419;-62
2023/05/20 02:19:35;;;;;;;8.30;5.53;;;;;;;;;;5032848;28;20875;-62
2023/05/20 02:22:01;;;;;;;8.10;5.90;;;;;;;;;;5032545;28;20441;-62
2023/05/20 02:24:27;;;;;;;6.10;5.50;;;;;;;;;;5032742;28;20867;-62
2023/05/20 02:26:57;;;;;;;7.30;5.50;;;;;;;;;;5032447;28;20431;-61
2023/05/20 02:29:23;;;;;;;5.73;5.43;;;;;;;;;;5032539;28;20420;-62
2023/05/20 02:31:49;;;;;;;5.97;5.57;;;;;;;;;;5032584;28;20416;-62
2023/05/20 02:34:17;;;;;;;6.90;5.20;;;;;;;;;;5032422;28;20484;-63
2023/05/20 02:36:43;;;;;;;8.27;5.40;;;;;;;;;;5032622;28;20780;-62
2023/05/20 02:39:11;;;;;;;6.00;5.50;;;;;;;;;;5032304;28;20473;-62
2023/05/20 02:41:37;;;;;;;9.73;5.47;;;;;;;;;;5032534;28;20468;-62
2023/05/20 02:44:03;;;;;;;8.07;5.60;;;;;;;;;;5032453;28;20443;-62
2023/05/20 02:46:30;;;;;;;5.93;5.50;;;;;;;;;;5032501;28;20507;-63
2023/05/20 02:48:56;;;;;;;10.00;6.60;;;;;;;;;;5032275;28;20444;-64
2023/05/20 02:51:23;;;;;;;5.80;5.30;;;;;;;;;;5032403;28;20869;-62
2023/05/20 02:53:49;;;;;;;6.57;6.03;;;;;;;;;;5032409;28;20404;-63
2023/05/20 02:56:15;;;;;;;10.33;6.27;;;;;;;;;;5032386;28;20430;-63
2023/05/20 02:58:41;;;;;;;8.10;6.70;;;;;;;;;;5032462;28;20415;-63
2023/05/20 03:01:07;;;;;;;11.50;7.03;;;;;;;;;;5032426;28;20528;-62
2023/05/20 03:03:33;;;;;;;12.87;6.67;;;;;;;;;;5032794;28;20859;-62
2023/05/20 03:05:59;;;;;;;7.17;6.70;;;;;;;;;;5032303;28;20479;-63
2023/05/20 03:08:25;;;;;;;11.90;7.20;;;;;;;;;;5032731;28;20412;-62
2023/05/20 03:10:51;;;;;;;7.47;6.57;;;;;;;;;;5047627;28;20559;-62
2023/05/20 03:13:17;;;;;;;6.90;6.30;;;;;;;;;;5032260;28;20439;-63
2023/05/20 03:15:44;;;;;;;8.13;6.87;;;;;;;;;;5032608;28;20817;-62
2023/05/20 03:18:11;;;;;;;7.93;6.50;;;;;;;;;;5032364;28;20446;-62
2023/05/20 03:20:37;;;;;;;8.93;6.67;;;;;;;;;;5047569;28;20434;-62
2023/05/20 03:23:04;;;;;;;8.40;6.43;;;;;;;;;;5032265;28;20481;-62
2023/05/20 03:25:30;;;;;;;6.20;5.60;;;;;;;;;;5031932;28;20467;-62
2023/05/20 03:27:57;;;;;;;9.10;6.80;;;;;;;;;;5032136;28;20408;-62
2023/05/20 03:30:23;;;;;;;11.03;5.20;;;;;;;;;;5032317;28;20447;-62
2023/05/20 03:32:49;;;;;;;7.13;6.43;;;;;;;;;;5030903;28;20507;-63
2023/05/20 03:35:15;;;;;;;9.60;6.40;;;;;;;;;;5030124;28;20451;-62
2023/05/20 03:37:41;;;;;;;8.07;6.40;;;;;;;;;;5031861;28;20910;-63
2023/05/20 03:40:09;;;;;;;6.60;6.10;;;;;;;;;;5029523;28;20550;-62
2023/05/20 03:42:37;;;;;;;8.27;7.30;;;;;;;;;;5019762;28;20435;-62
2023/05/20 03:45:03;;;;;;;11.60;7.33;;;;;;;;;;5015874;28;20978;-62
2023/05/20 03:47:29;;;;;;;8.00;7.20;;;;;;;;;;5015728;28;20435;-62
2023/05/20 03:49:55;;;;;;;8.20;7.40;;;;;;;;;;5015980;28;20903;-62
2023/05/20 03:52:21;;;;;;;7.60;6.90;;;;;;;;;;5015950;28;20417;-63
2023/05/20 03:54:52;;;;;;;7.80;7.10;;;;;;;;;;5015816;28;20907;-62
2023/05/20 03:57:18;;;;;;;13.43;7.73;;;;;;;;;;5015514;28;20427;-62
2023/05/20 03:59:44;;;;;;;8.43;7.53;;;;;;;;;;5015709;28;20904;-63
2023/05/20 04:02:10;;;;;;;8.30;7.20;;;;;;;;;;5015647;28;20443;-62
2023/05/20 04:04:36;;;;;;;15.90;7.33;;;;;;;;;;5015458;28;20444;-62
2023/05/20 04:07:03;;;;;;;11.13;7.53;;;;;;;;;;5015509;28;21102;-62
2023/05/20 04:09:32;;;;;;;9.13;7.20;;;;;;;;;;5025760;28;20932;-64
2023/05/20 04:11:58;;;;;;;9.63;7.57;;;;;;;;;;5015570;28;20515;-63
2023/05/20 04:14:24;;;;;;;8.77;8.00;;;;;;;;;;5015391;28;20449;-62
2023/05/20 04:16:50;;;;;;;10.40;8.10;;;;;;;;;;5022850;28;20455;-63
2023/05/20 04:19:18;;;;;;;8.20;7.40;;;;;;;;;;5035034;28;20946;-65
2023/05/20 04:21:44;;;;;;;282.40;153.60;;;;;;;;;;5035048;28;20911;-63
2023/05/20 04:24:13;;;;;;;52.63;31.20;;;;;;;;;;5035009;28;20966;-63
2023/05/20 04:26:39;;;;;;;9.63;8.57;;;;;;;;;;5028694;28;20463;-63
2023/05/20 04:29:05;;;;;;;8.80;7.90;;;;;;;;;;5019676;28;20428;-63
2023/05/20 04:31:31;;;;;;;8.80;7.87;;;;;;;;;;5015010;28;20459;-63
2023/05/20 04:33:57;;;;;;;9.77;7.47;;;;;;;;;;5019093;28;20424;-64
2023/05/20 04:36:29;;;;;;;8.57;6.77;;;;;;;;;;5034599;28;20577;-62
2023/05/20 04:38:56;;;;;;;7.57;6.80;;;;;;;;;;5034763;28;20494;-63
2023/05/20 04:41:23;;;;;;;8.20;7.50;;;;;;;;;;5034577;28;20432;-63
2023/05/20 04:43:49;;;;;;;11.83;8.40;;;;;;;;;;5030499;28;20942;-64
2023/05/20 04:46:15;;;;;;;8.60;7.80;;;;;;;;;;5025705;28;20911;-63
2023/05/20 04:48:46;;;;;;;8.47;7.53;;;;;;;;;;5034145;28;20420;-64
2023/05/20 04:51:12;;;;;;;10.40;8.00;;;;;;;;;;5029704;28;20440;-63
2023/05/20 04:53:41;;;;;;;20.50;14.87;;;;;;;;;;5020098;28;20459;-63
2023/05/20 04:56:07;;;;;;;8.10;7.40;;;;;;;;;;5014595;28;20474;-63
2023/05/20 04:58:33;;;;;;;13.40;9.90;;;;;;;;;;5020370;28;20464;-63
2023/05/20 05:01:00;;;;;;;11.37;6.77;;;;;;;;;;5034383;28;20789;-65
2023/05/20 05:03:28;;;;;;;66.07;34.80;;;;;;;;;;5034244;28;20439;-68
2023/05/20 05:06:00;;;;;;;43.30;25.93;;;;;;;;;;5034342;28;20458;-64
2023/05/20 05:08:26;;;;;;;11.80;7.47;;;;;;;;;;5034016;28;20440;-64
2023/05/20 05:10:52;;;;;;;7.63;7.07;;;;;;;;;;5034200;28;20447;-64
2023/05/20 05:13:18;;;;;;;8.13;7.43;;;;;;;;;;5033933;28;20815;-65
2023/05/20 05:15:44;;;;;;;12.90;6.80;;;;;;;;;;5033711;28;20441;-64
2023/05/20 05:18:10;;;;;;;9.53;7.00;;;;;;;;;;5033928;28;20495;-64
2023/05/20 05:20:39;;;;;;;7.03;6.33;;;;;;;;;;5034018;28;20437;-64
2023/05/20 05:23:05;;;;;;;8.73;6.70;;;;;;;;;;5033912;28;20502;-65
2023/05/20 05:25:32;;;;;;;11.10;9.17;;;;;;;;;;5033698;28;20452;-64
2023/05/20 05:27:58;;;;;;;9.07;8.20;;;;;;;;;;5033670;28;20408;-64
2023/05/20 05:30:27;;;;;;;7.23;6.63;;;;;;;;;;5033805;28;20431;-66
2023/05/20 05:32:53;;;;;;;11.63;6.67;;;;;;;;;;5033558;28;20809;-63
2023/05/20 05:35:19;;;;;;;9.13;8.10;;;;;;;;;;5033736;28;20412;-64
2023/05/20 05:37:45;;;;;;;7.27;6.60;;;;;;;;;;5033575;28;20440;-64
2023/05/20 05:40:11;;;;;;;8.80;6.73;;;;;;;;;;5033663;28;20451;-63
2023/05/20 05:42:37;;;;;;;6.53;6.10;;;;;;;;;;5033296;28;20412;-63
2023/05/20 05:45:03;;;;;;;6.73;6.20;;;;;;;;;;5033502;28;20543;-63
2023/05/20 05:47:31;;;;;;;7.87;5.90;;;;;;;;;;5024656;28;20802;-63
2023/05/20 05:49:58;;;;;;;6.33;5.47;;;;;;;;;;5029648;28;20430;-64
2023/05/20 05:52:25;;;;;;;52.13;31.83;;;;;;;;;;5033425;28;20406;-65
2023/05/20 05:54:51;;;;;;;9.07;8.23;;;;;;;;;;5033103;28;20811;-63
2023/05/20 05:57:17;;;;;;;6.33;5.80;;;;;;;;;;5021454;28;20456;-62
2023/05/20 05:59:43;;;;;;;6.77;6.13;;;;;;;;;;5031467;28;20975;-61
2023/05/20 06:02:09;;;;;;;5.67;5.27;;;;;;;;;;5032848;28;20775;-62
2023/05/20 06:04:35;;;;;;;6.37;5.77;;;;;;;;;;5033031;28;20419;-62
2023/05/20 06:07:01;;;;;;;6.93;5.90;;;;;;;;;;5032914;28;20770;-62
2023/05/20 06:09:30;;;;;;;6.03;5.50;;;;;;;;;;5032205;28;20414;-62
2023/05/20 06:11:56;;;;;;;6.07;5.50;;;;;;;;;;5032339;28;20464;-62
2023/05/20 06:14:22;;;;;;;6.50;5.90;;;;;;;;;;5032788;28;20414;-62
2023/05/20 06:16:50;;;;;;;7.50;5.77;;;;;;;;;;5031366;28;20440;-62
2023/05/20 06:19:16;;;;;;;10.30;6.13;;;;;;;;;;5032942;28;20922;-63
2023/05/20 06:21:42;;;;;;;6.23;5.63;;;;;;;;;;5031183;28;20458;-62
2023/05/20 06:24:08;;;;;;;20.97;14.83;;;;;;;;;;5032798;28;20881;-63
2023/05/20 06:26:36;;;;;;;7.43;6.33;;;;;;;;;;5032571;28;20460;-62
2023/05/20 06:29:03;;;;;;;5.07;4.77;;;;;;;;;;5032647;28;20434;-62
2023/05/20 06:31:31;;;;;;;5.80;5.40;;;;;;;;;;5031449;28;20476;-64
2023/05/20 06:33:57;;;;;;;17.47;11.37;;;;;;;;;;5032536;28;20445;-63
2023/05/20 06:36:23;;;;;;;6.60;5.90;;;;;;;;;;5032644;28;20412;-63
2023/05/20 06:38:49;;;;;;;6.33;5.57;;;;;;;;;;5031944;28;21019;-63
2023/05/20 06:41:15;;;;;;;9.03;5.70;;;;;;;;;;5032324;28;20426;-62
2023/05/20 06:43:41;;;;;;;5.57;5.07;;;;;;;;;;5032451;28;20425;-62
2023/05/20 06:46:07;;;;;;;5.00;4.70;;;;;;;;;;5025854;28;20512;-61
2023/05/20 06:48:33;;;;;;;5.53;5.03;;;;;;;;;;5020445;28;20869;-61
2023/05/20 06:51:01;;;;;;;8.13;5.27;;;;;;;;;;5012505;28;20439;-61
2023/05/20 06:53:27;;;;;;;7.93;5.50;;;;;;;;;;5012589;28;20426;-62
2023/05/20 06:55:56;;;;;;;5.90;5.40;;;;;;;;;;5012637;28;20807;-62
2023/05/20 06:58:22;;;;;;;5.40;5.00;;;;;;;;;;5012692;28;20941;-62
2023/05/20 07:00:48;;;;;;;4.97;4.77;;;;;;;;;;5012483;28;20420;-63
2023/05/20 07:03:14;;;;;;;185.63;139.83;;;;;;;;;;5012502;28;20411;-66
2023/05/20 07:05:40;;;;;;;169.83;110.07;;;;;;;;;;5012462;28;20467;-64
2023/05/20 07:08:06;;;;;;;9.60;5.70;;;;;;;;;;5012425;28;20413;-63
2023/05/20 07:10:32;;;;;;;6.17;5.77;;;;;;;;;;5012525;28;20419;-64
2023/05/20 07:12:58;;;;;;;6.67;6.07;;;;;;;;;;5013866;28;20880;-63
2023/05/20 07:15:24;;;;;;;5.87;5.50;;;;;;;;;;5016423;28;20507;-63
2023/05/20 07:17:50;;;;;;;6.80;5.17;;;;;;;;;;5023400;28;20443;-63
2023/05/20 07:20:16;;;;;;;5.00;4.70;;;;;;;;;;5027958;28;20473;-62
2023/05/20 07:22:44;;;;;;;5.20;4.80;;;;;;;;;;5030617;28;20420;-63
2023/05/20 07:25:10;;;;;;;4.70;4.50;;;;;;;;;;5035882;28;20465;-63
2023/05/20 07:27:36;;;;;;;5.87;5.37;;;;;;;;;;5035975;28;20856;-64
2023/05/20 07:30:02;;;;;;;4.77;4.53;;;;;;;;;;5035747;28;20518;-62
2023/05/20 07:32:31;;;;;;;56.40;38.83;;;;;;;;;;5035945;28;20418;-63
2023/05/20 07:34:57;;;;;;;6.57;5.97;;;;;;;;;;5030691;28;20492;-62
2023/05/20 07:37:22;;;;;;;6.33;5.10;;;;;;;;;;5034352;28;20435;-62
2023/05/20 07:39:51;;;;;;;5.60;4.97;;;;;;;;;;5034552;28;20467;-63
2023/05/20 07:42:17;;;;;;;9.00;4.57;;;;;;;;;;5035367;28;20416;-62
2023/05/20 07:44:43;;;;;;;5.53;5.23;;;;;;;;;;5033024;28;20961;-62
2023/05/20 07:47:09;;;;;;;7.53;5.37;;;;;;;;;;5034496;28;20442;-62
2023/05/20 07:49:36;;;;;;;7.03;5.07;;;;;;;;;;5033718;28;20416;-63
2023/05/20 07:52:01;;;;;;;5.43;5.10;;;;;;;;;;5034953;28;20494;-62
2023/05/20 07:54:27;;;;;;;5.63;5.13;;;;;;;;;;5035297;28;20428;-62
2023/05/20 07:56:53;;;;;;;5.37;4.97;;;;;;;;;;5035286;28;20503;-63
2023/05/20 07:59:20;;;;;;;5.67;5.13;;;;;;;;;;5035199;28;20415;-63
2023/05/20 08:01:48;;;;;;;5.93;5.50;;;;;;;;;;5033910;28;20422;-62
2023/05/20 08:04:14;;;;;;;5.43;5.13;;;;;;;;;;5033715;28;20420;-63
2023/05/20 08:06:40;;;;;;;5.60;5.30;;;;;;;;;;5035071;28;20463;-62
2023/05/20 08:09:06;;;;;;;6.00;5.53;;;;;;;;;;5035051;28;20432;-62
2023/05/20 08:11:32;;;;;;;5.97;5.63;;;;;;;;;;5035071;28;20796;-62
2023/05/20 08:13:58;;;;;;;5.23;4.90;;;;;;;;;;5034842;28;20444;-63
2023/05/20 08:16:24;;;;;;;8.50;5.67;;;;;;;;;;5034739;28;20435;-62
2023/05/20 08:18:50;;;;;;;6.27;5.77;;;;;;;;;;5035154;28;20481;-62
2023/05/20 08:21:20;;;;;;;5.80;5.30;;;;;;;;;;5034875;28;20883;-63
2023/05/20 08:23:46;;;;;;;5.10;4.80;;;;;;;;;;5034151;28;20900;-63
2023/05/20 08:26:12;;;;;;;5.63;5.23;;;;;;;;;;5033417;28;20585;-62
2023/05/20 08:28:38;;;;;;;8.47;5.50;;;;;;;;;;5034788;28;20896;-62
2023/05/20 08:31:04;;;;;;;5.80;5.33;;;;;;;;;;5034622;28;20432;-62
2023/05/20 08:33:30;;;;;;;6.67;6.17;;;;;;;;;;5034771;28;20893;-63
2023/05/20 08:35:56;;;;;;;7.27;6.50;;;;;;;;;;5034360;28;20457;-62
2023/05/20 08:38:22;;;;;;;6.57;5.97;;;;;;;;;;5034576;28;20921;-63
2023/05/20 08:40:53;;;;;;;6.00;5.70;;;;;;;;;;5034347;28;20531;-63
2023/05/20 08:43:19;;;;;;;6.17;5.70;;;;;;;;;;5034402;28;20902;-63
2023/05/20 08:45:45;;;;;;;6.00;5.50;;;;;;;;;;5034250;28;20557;-63
2023/05/20 08:48:14;;;;;;;5.93;5.63;;;;;;;;;;5034205;28;20524;-62
2023/05/20 08:50:40;;;;;;;10.00;6.00;;;;;;;;;;5034139;28;20777;-63
2023/05/20 08:53:07;;;;;;;5.00;4.60;;;;;;;;;;5034200;28;20438;-63
2023/05/20 08:55:37;;;;;;;6.37;5.97;;;;;;;;;;5034162;28;20426;-63
2023/05/20 08:58:05;;;;;;;8.93;4.70;;;;;;;;;;5034203;28;20782;-62
2023/05/20 09:00:31;;;;;;;6.40;5.87;;;;;;;;;;5033869;28;20425;-62
2023/05/20 09:02:59;;;;;;;5.40;5.10;;;;;;;;;;5034071;28;20923;-62
2023/05/20 09:05:27;;;;;;;7.57;5.93;;;;;;;;;;5032544;28;20814;-62
2023/05/20 09:08:06;;;;;;;7.23;6.63;;;;;;;;;;5033812;28;20920;-62
2023/05/20 09:10:32;;;;;;;5.77;5.37;;;;;;;;;;5033889;28;20490;-62
2023/05/20 09:13:01;;;;;;;6.20;4.97;;;;;;;;;;5034039;28;20464;-62
2023/05/20 09:15:27;;;;;;;4.90;4.50;;;;;;;;;;5033701;28;20726;-62
2023/05/20 09:17:53;;;;;;;5.43;5.13;;;;;;;;;;5034078;28;20449;-62
2023/05/20 09:20:21;;;;;;;5.00;4.70;;;;;;;;;;5033694;28;20475;-62
2023/05/20 09:22:52;;;;;;;5.10;4.90;;;;;;;;;;5032274;28;20476;-62
2023/05/20 09:25:20;;;;;;;11.33;5.30;;;;;;;;;;5033720;28;20457;-62
2023/05/20 09:27:46;;;;;;;6.17;5.67;;;;;;;;;;5032389;28;20425;-62
2023/05/20 09:30:12;;;;;;;5.20;4.90;;;;;;;;;;5033578;28;20438;-63
2023/05/20 09:32:38;;;;;;;6.10;5.47;;;;;;;;;;5033350;28;20841;-62
2023/05/20 09:35:05;;;;;;;15.37;5.60;;;;;;;;;;5032650;28;20423;-63
2023/05/20 09:37:34;;;;;;;8.30;5.40;;;;;;;;;;5033372;28;20462;-63
2023/05/20 09:40:02;;;;;;;5.50;5.00;;;;;;;;;;5033237;28;20809;-63
2023/05/20 09:42:35;;;;;;;5.10;4.87;;;;;;;;;;5033294;28;20403;-63
2023/05/20 09:45:03;;;;;;;5.73;5.23;;;;;;;;;;5033725;28;20456;-63
2023/05/20 09:47:30;;;;;;;5.47;4.37;;;;;;;;;;5033472;28;20425;-62
2023/05/20 09:49:56;;;;;;;4.63;4.33;;;;;;;;;;5033566;28;20410;-63
2023/05/20 09:52:22;;;;;;;4.93;4.53;;;;;;;;;;5033349;28;20784;-63
2023/05/20 09:54:49;;;;;;;5.43;5.03;;;;;;;;;;5033448;28;20906;-63
2023/05/20 09:57:15;;;;;;;5.20;4.90;;;;;;;;;;5033248;28;20425;-62
2023/05/20 09:59:43;;;;;;;4.97;4.77;;;;;;;;;;5032016;28;20418;-62
2023/05/20 10:02:11;;;;;;;5.00;4.80;;;;;;;;;;5033141;28;20446;-63
2023/05/20 10:04:41;;;;;;;5.07;4.77;;;;;;;;;;5033193;28;20448;-63
2023/05/20 10:07:20;;;;;;;9.93;4.80;;;;;;;;;;5033234;28;21408;-63
2023/05/20 10:09:51;;;;;;;5.20;5.00;;;;;;;;;;5033508;28;20954;-63
2023/05/20 10:12:45;;;;;;;5.03;4.80;;;;;;;;;;5033088;28;20415;-62
2023/05/20 10:15:16;;;;;;;4.90;4.80;;;;;;;;;;5033132;28;20912;-63
2023/05/20 10:18:04;;;;;;;5.40;5.00;;;;;;;;;;5033024;28;20422;-62
2023/05/20 10:20:30;;;;;;;5.33;4.83;;;;;;;;;;5033024;28;20407;-63
2023/05/20 10:22:57;;;;;;;7.67;5.07;;;;;;;;;;5032987;28;20418;-63
2023/05/20 10:25:27;;;;;;;4.77;4.47;;;;;;;;;;5032899;28;20483;-62
2023/05/20 10:28:07;;;;;;;5.50;5.17;;;;;;;;;;5033111;28;20523;-62
2023/05/20 10:30:34;;;;;;;9.10;8.20;;;;;;;;;;5033368;28;20765;-63
2023/05/20 10:33:04;;;;;;;5.30;4.90;;;;;;;;;;5033094;28;20410;-63
2023/05/20 10:35:32;;;;;;;5.20;4.80;;;;;;;;;;5032797;28;20420;-63
2023/05/20 10:38:11;;;;;;;5.43;5.03;;;;;;;;;;5032684;28;20412;-62
2023/05/20 10:40:40;;;;;;;5.83;5.40;;;;;;;;;;5031297;28;20444;-63
2023/05/20 10:43:35;;;;;;;5.10;4.90;;;;;;;;;;5032632;28;20398;-63
2023/05/20 10:46:01;;;;;;;5.40;5.10;;;;;;;;;;5032178;28;20474;-62
2023/05/20 10:48:28;;;;;;;5.50;5.30;;;;;;;;;;5032347;28;20446;-62
2023/05/20 10:50:58;;;;;;;5.50;5.00;;;;;;;;;;5032723;28;20479;-63
2023/05/20 10:53:27;;;;;;;4.63;4.43;;;;;;;;;;5032544;28;20444;-63
2023/05/20 10:55:54;;;;;;;5.47;5.13;;;;;;;;;;5032373;28;20442;-63
2023/05/20 10:58:24;;;;;;;5.50;5.17;;;;;;;;;;5032134;28;20429;-62
2023/05/20 11:00:51;;;;;;;5.40;5.00;;;;;;;;;;5032594;28;20445;-63
2023/05/20 11:03:19;;;;;;;5.37;5.07;;;;;;;;;;5032409;28;20418;-63
2023/05/20 11:05:47;;;;;;;5.20;5.00;;;;;;;;;;5032528;28;20462;-62
2023/05/20 11:08:13;;;;;;;9.80;4.87;;;;;;;;;;5032408;28;20443;-63
2023/05/20 11:10:39;;;;;;;5.30;4.90;;;;;;;;;;5032276;28;20877;-63
2023/05/20 11:13:06;;;;;;;5.60;5.10;;;;;;;;;;5032565;28;20423;-63
2023/05/20 11:15:35;;;;;;;5.17;4.80;;;;;;;;;;5032503;28;20421;-63
2023/05/20 11:18:02;;;;;;;4.83;4.70;;;;;;;;;;5032541;28;20410;-63
2023/05/20 11:20:29;;;;;;;5.63;4.97;;;;;;;;;;5032456;28;20965;-63
2023/05/20 11:22:55;;;;;;;5.43;4.60;;;;;;;;;;5032737;28;20415;-63
2023/05/20 11:25:24;;;;;;;5.10;4.83;;;;;;;;;;5032253;28;20482;-63
2023/05/20 11:27:50;;;;;;;5.27;4.87;;;;;;;;;;5032523;28;20416;-63
2023/05/20 11:30:19;;;;;;;5.20;5.00;;;;;;;;;;5032220;28;20433;-63
2023/05/20 11:33:01;;;;;;;4.67;4.53;;;;;;;;;;5032431;28;20407;-63
2023/05/20 11:35:29;;;;;;;5.30;5.00;;;;;;;;;;5032277;28;20416;-63
2023/05/20 11:38:05;;;;;;;5.20;4.80;;;;;;;;;;5032185;28;20808;-63
2023/05/20 11:40:32;;;;;;;4.93;4.73;;;;;;;;;;5032109;28;20438;-63
2023/05/20 11:42:59;;;;;;;5.20;4.70;;;;;;;;;;5032473;28;20449;-63
2023/05/20 11:45:26;;;;;;;5.30;5.00;;;;;;;;;;5031842;28;20481;-63
2023/05/20 11:47:59;;;;;;;5.07;4.43;;;;;;;;;;5032177;28;20420;-63
2023/05/20 11:50:25;;;;;;;5.10;4.90;;;;;;;;;;5032025;28;20515;-63
2023/05/20 11:53:00;;;;;;;4.27;4.17;;;;;;;;;;5031915;28;20442;-63
2023/05/20 11:55:26;;;;;;;5.13;4.93;;;;;;;;;;5028558;28;20473;-63
2023/05/20 11:57:52;;;;;;;9.67;9.07;;;;;;;;;;5031716;28;20425;-64
2023/05/20 12:00:18;;;;;;;4.40;4.27;;;;;;;;;;5033580;28;20475;-63
2023/05/20 12:02:45;;;;;;;130.90;79.93;;;;;;;;;;5057855;22;20579;-65
2023/05/20 12:05:11;;;;;;;17.83;9.63;;;;;;;;;;5033686;28;20911;-62
2023/05/20 12:07:37;;;;;;;4.13;4.03;;;;;;;;;;5027562;28;20842;-63
2023/05/20 12:10:03;;;;;;;4.20;4.00;;;;;;;;;;5037935;28;20434;-63
2023/05/20 12:12:29;;;;;;;4.80;4.70;;;;;;;;;;5035464;28;20410;-63
2023/05/20 12:14:55;;;;;;;4.30;4.10;;;;;;;;;;5035123;28;20434;-63
2023/05/20 12:17:21;;;;;;;4.40;4.10;;;;;;;;;;5035204;28;20403;-64
2023/05/20 12:19:47;;;;;;;4.50;4.30;;;;;;;;;;5037390;28;20468;-63
2023/05/20 12:22:15;;;;;;;5.97;5.43;;;;;;;;;;5039928;28;20443;-63
2023/05/20 12:24:44;;;;;;;4.77;4.47;;;;;;;;;;5043941;28;20496;-63
2023/05/20 12:27:12;;;;;;;4.80;4.57;;;;;;;;;;5042827;28;20406;-63
2023/05/20 12:29:38;;;;;;;4.80;4.50;;;;;;;;;;5043885;28;20413;-63
2023/05/20 12:32:04;;;;;;;4.70;4.50;;;;;;;;;;5044327;28;20746;-63
2023/05/20 12:34:34;;;;;;;4.33;4.07;;;;;;;;;;5042645;28;20442;-63
2023/05/20 12:37:00;;;;;;;4.03;3.73;;;;;;;;;;5036426;28;20483;-63
2023/05/20 12:39:26;;;;;;;3.70;3.60;;;;;;;;;;5028431;28;20506;-64
2023/05/20 12:41:52;;;;;;;3.83;3.73;;;;;;;;;;5025724;28;20421;-63
2023/05/20 12:44:18;;;;;;;4.13;3.80;;;;;;;;;;5034836;28;20422;-63
2023/05/20 12:46:44;;;;;;;5.40;3.83;;;;;;;;;;5034694;28;20494;-63
2023/05/20 12:49:10;;;;;;;4.17;4.00;;;;;;;;;;5034961;28;20455;-63
2023/05/20 12:51:36;;;;;;;3.70;3.60;;;;;;;;;;5033938;28;20404;-63
2023/05/20 12:54:05;;;;;;;3.73;3.43;;;;;;;;;;5033112;28;20481;-63
2023/05/20 12:56:31;;;;;;;3.80;3.70;;;;;;;;;;5049725;28;20438;-64
2023/05/20 12:58:57;;;;;;;4.10;3.93;;;;;;;;;;5027187;28;20439;-64
2023/05/20 13:01:25;;;;;;;4.43;4.23;;;;;;;;;;5014556;28;20438;-63
2023/05/20 13:03:52;;;;;;;4.00;3.90;;;;;;;;;;5014165;28;20449;-64
2023/05/20 13:06:18;;;;;;;4.20;4.00;;;;;;;;;;5023226;28;20476;-64
2023/05/20 13:08:44;;;;;;;4.23;3.90;;;;;;;;;;5017096;28;20424;-63
2023/05/20 13:11:12;;;;;;;3.60;3.60;;;;;;;;;;5018822;28;20415;-63
2023/05/20 13:13:38;;;;;;;4.30;3.60;;;;;;;;;;5041508;28;20417;-64
2023/05/20 13:16:05;;;;;;;4.03;3.87;;;;;;;;;;5043104;28;20933;-63
2023/05/20 13:18:31;;;;;;;3.80;3.70;;;;;;;;;;5041318;28;20876;-63
2023/05/20 13:20:59;;;;;;;6.23;3.80;;;;;;;;;;5043693;28;20540;-64
2023/05/20 13:23:25;;;;;;;4.67;4.17;;;;;;;;;;5042417;28;20412;-63
2023/05/20 13:25:54;;;;;;;3.83;3.73;;;;;;;;;;5042121;28;20480;-64
2023/05/20 13:28:22;;;;;;;11.43;10.43;;;;;;;;;;5043502;28;20416;-63
2023/05/20 13:30:50;;;;;;;4.10;3.80;;;;;;;;;;5037443;28;20450;-64
2023/05/20 13:33:16;;;;;;;3.87;3.57;;;;;;;;;;5042971;28;20477;-63
2023/05/20 13:35:42;;;;;;;5.13;4.93;;;;;;;;;;5039868;28;20420;-63
2023/05/20 13:38:10;;;;;;;5.10;4.30;;;;;;;;;;5042992;28;20412;-63
2023/05/20 13:40:36;;;;;;;3.50;3.30;;;;;;;;;;5042955;28;20424;-63
2023/05/20 13:43:02;;;;;;;4.03;3.73;;;;;;;;;;5041278;28;20420;-63
2023/05/20 13:45:28;;;;;;;3.63;3.43;;;;;;;;;;5042657;28;20462;-64
2023/05/20 13:47:54;;;;;;;3.57;3.47;;;;;;;;;;5042192;28;20440;-63
2023/05/20 13:50:20;;;;;;;5.93;3.70;;;;;;;;;;5041050;28;20894;-63
2023/05/20 13:52:46;;;;;;;4.30;4.20;;;;;;;;;;5042988;28;20417;-64
2023/05/20 13:55:12;;;;;;;6.70;6.10;;;;;;;;;;5041690;28;20451;-63
2023/05/20 13:57:38;;;;;;;4.93;4.80;;;;;;;;;;5041246;28;20449;-63
2023/05/20 14:00:05;;;;;;;4.03;3.50;;;;;;;;;;5042653;28;20433;-64
2023/05/20 14:02:31;;;;;;;4.00;3.90;;;;;;;;;;5041690;28;20442;-63
2023/05/20 14:04:57;;;;;;;4.30;4.10;;;;;;;;;;5041098;28;20772;-63
2023/05/20 14:07:23;;;;;;;3.80;3.70;;;;;;;;;;5042736;28;20434;-63
2023/05/20 14:09:50;;;;;;;3.53;3.30;;;;;;;;;;5041465;28;20443;-64
2023/05/20 14:12:19;;;;;;;11.20;8.60;;;;;;;;;;5038873;28;20463;-63
2023/05/20 14:14:45;;;;;;;4.30;4.20;;;;;;;;;;5057196;28;20489;-63
2023/05/20 14:17:11;;;;;;;3.80;3.70;;;;;;;;;;5039134;28;20440;-64
2023/05/20 14:19:37;;;;;;;4.17;3.97;;;;;;;;;;5041296;28;20443;-63
2023/05/20 14:22:03;;;;;;;3.83;3.70;;;;;;;;;;5037755;28;20445;-64
2023/05/20 14:24:31;;;;;;;5.57;5.10;;;;;;;;;;5039749;28;20404;-63
2023/05/20 14:26:57;;;;;;;3.77;3.57;;;;;;;;;;5038724;28;20456;-64
2023/05/20 14:29:23;;;;;;;4.30;4.10;;;;;;;;;;5042062;28;20424;-63
2023/05/20 14:31:52;;;;;;;4.40;4.10;;;;;;;;;;5039438;28;20475;-63
2023/05/20 14:34:20;;;;;;;4.53;4.23;;;;;;;;;;5038209;28;20415;-63
2023/05/20 14:36:46;;;;;;;3.70;3.60;;;;;;;;;;5056428;28;20429;-64
2023/05/20 14:39:12;;;;;;;5.57;5.20;;;;;;;;;;5042173;28;20476;-64